Time;durP1;ratioP1;P1;durP2;ratioP2;P2;SDS_P1;SDS_P2;PMS_P1;PMS_P2;Temp;Humidity;BMP_temperature;BMP_pressure;BME280_temperature;BME280_humidity;BME280_pressure;Samples;Min_cycle;Max_cycle;Signal;HPM_P1;HPM_P2
2021/01/15 00:01:20;;;;;;;18.83;10.63;;;;;;;1.84;66.98;102506.59;5090934;28;20066;-77
2021/01/15 00:03:46;;;;;;;22.58;12.35;;;;;;;1.78;67.14;102511.56;5079146;28;20484;-77
2021/01/15 00:06:22;;;;;;;20.15;11.52;;;;;;;1.82;67.12;102516.13;5086872;28;20516;-77
2021/01/15 00:08:49;;;;;;;19.15;10.43;;;;;;;1.76;67.03;102513.25;5090846;28;20062;-76
2021/01/15 00:11:22;;;;;;;22.17;11.00;;;;;;;1.76;66.87;102510.63;5090526;28;20028;-78
2021/01/15 00:13:49;;;;;;;21.33;11.15;;;;;;;1.72;67.14;102513.91;5090325;28;20021;-77
2021/01/15 00:16:22;;;;;;;18.02;9.85;;;;;;;1.73;67.15;102510.47;5083041;28;20472;-76
2021/01/15 00:18:50;;;;;;;19.73;10.88;;;;;;;1.70;67.11;102513.84;5084424;28;20475;-77
2021/01/15 00:21:19;;;;;;;18.40;10.13;;;;;;;1.70;66.87;102528.66;5070050;28;20430;-79
2021/01/15 00:23:46;;;;;;;21.45;11.40;;;;;;;1.67;66.82;102526.78;5081280;28;20074;-78
2021/01/15 00:26:16;;;;;;;21.23;11.13;;;;;;;1.70;67.17;102531.25;5090316;28;20391;-78
2021/01/15 00:28:43;;;;;;;20.98;10.73;;;;;;;1.66;67.22;102531.94;5090294;28;20029;-78
2021/01/15 00:31:10;;;;;;;21.00;11.80;;;;;;;1.62;66.99;102520.47;5075931;28;20021;-78
2021/01/15 00:33:37;;;;;;;19.13;10.73;;;;;;;1.65;67.49;102531.06;5069724;28;20075;-78
2021/01/15 00:36:04;;;;;;;19.23;10.40;;;;;;;1.65;67.32;102532.78;5070729;28;20040;-78
2021/01/15 00:38:31;;;;;;;19.33;11.23;;;;;;;1.66;67.34;102534.53;5075349;28;20071;-78
2021/01/15 00:40:59;;;;;;;18.95;10.48;;;;;;;1.68;67.07;102538.13;5071843;28;20020;-78
2021/01/15 00:43:26;;;;;;;19.30;10.57;;;;;;;1.69;67.07;102550.38;5089790;28;20025;-79
2021/01/15 00:45:52;;;;;;;21.92;9.85;;;;;;;1.68;66.77;102552.06;5090340;28;20423;-77
2021/01/15 00:48:19;;;;;;;19.08;10.43;;;;;;;1.65;66.58;102556.31;5087937;28;20059;-78
2021/01/15 00:50:46;;;;;;;20.42;11.80;;;;;;;1.66;66.94;102555.44;5076053;28;20029;-78
2021/01/15 00:53:12;;;;;;;17.05;10.02;;;;;;;1.66;67.00;102565.91;5076076;28;20028;-77
2021/01/15 00:55:39;;;;;;;18.92;11.15;;;;;;;1.62;66.93;102567.50;5060860;28;20539;-78
2021/01/15 00:58:05;;;;;;;17.08;9.98;;;;;;;1.64;66.49;102571.06;5055986;28;20073;-78
2021/01/15 01:00:32;;;;;;;18.83;10.18;;;;;;;1.65;66.77;102571.97;5056049;28;20043;-77
2021/01/15 01:02:58;;;;;;;16.55;10.23;;;;;;;1.63;66.64;102574.50;5069219;28;20498;-77
2021/01/15 01:05:25;;;;;;;23.50;10.82;;;;;;;1.61;66.89;102574.44;5073406;28;20025;-77
2021/01/15 01:07:54;;;;;;;19.85;11.02;;;;;;;1.61;66.42;102577.06;5075049;28;20043;-77
2021/01/15 01:10:21;;;;;;;16.85;10.48;;;;;;;1.58;66.64;102584.75;5073134;22;20435;-79
2021/01/15 01:12:47;;;;;;;18.95;10.23;;;;;;;1.57;66.64;102577.75;5014611;28;20022;-78
2021/01/15 01:15:14;;;;;;;21.58;11.55;;;;;;;1.56;66.79;102583.78;5015282;28;20026;-78
2021/01/15 01:17:42;;;;;;;18.65;10.98;;;;;;;1.56;66.66;102589.03;5015202;28;20026;-83
2021/01/15 01:20:12;;;;;;;15.13;9.48;;;;;;;1.56;66.72;102588.13;4996923;28;20048;-79
2021/01/15 01:22:39;;;;;;;16.15;10.40;;;;;;;1.53;66.30;102609.75;5026328;28;20033;-78
2021/01/15 01:25:07;;;;;;;18.92;10.13;;;;;;;1.52;66.46;102608.00;5022418;28;20109;-77
2021/01/15 01:27:34;;;;;;;19.00;11.77;;;;;;;1.49;66.18;102612.19;5025993;28;20040;-79
2021/01/15 01:30:00;;;;;;;19.35;10.63;;;;;;;1.47;66.56;102614.75;5024586;28;20149;-77
2021/01/15 01:32:27;;;;;;;20.27;10.98;;;;;;;1.48;66.32;102610.41;5024915;28;20032;-78
2021/01/15 01:34:53;;;;;;;17.92;11.13;;;;;;;1.45;66.38;102621.59;5026393;28;20484;-77
2021/01/15 01:37:20;;;;;;;16.58;9.15;;;;;;;1.45;66.08;102624.22;5024187;28;20034;-77
2021/01/15 01:39:46;;;;;;;16.80;10.05;;;;;;;1.41;65.98;102628.41;5024740;28;20029;-78
2021/01/15 01:42:13;;;;;;;22.75;12.18;;;;;;;1.41;66.32;102630.13;5033912;28;20071;-79
2021/01/15 01:44:40;;;;;;;21.45;10.10;;;;;;;1.40;66.37;102637.03;5035159;28;20025;-80
2021/01/15 01:47:07;;;;;;;15.45;10.20;;;;;;;1.36;66.40;102639.44;5034912;28;20042;-78
2021/01/15 01:49:35;;;;;;;17.02;10.57;;;;;;;1.35;65.92;102648.13;5035149;28;20096;-79
2021/01/15 01:52:04;;;;;;;16.33;9.90;;;;;;;1.34;66.07;102648.94;5035164;28;20108;-78
2021/01/15 01:54:35;;;;;;;19.33;11.48;;;;;;;1.34;66.10;102644.59;5034930;28;20381;-78
2021/01/15 01:57:04;;;;;;;17.25;8.98;;;;;;;1.33;65.84;102647.13;5035263;28;20400;-78
2021/01/15 01:59:38;;;;;;;22.40;12.60;;;;;;;1.25;65.72;102650.28;5034718;28;20032;-79
2021/01/15 02:02:05;;;;;;;17.08;10.52;;;;;;;1.26;65.93;102661.63;5034120;28;20029;-78
2021/01/15 02:04:31;;;;;;;16.15;10.63;;;;;;;1.22;65.93;102671.03;5034365;28;20034;-79
2021/01/15 02:06:58;;;;;;;15.45;10.02;;;;;;;1.23;66.16;102672.81;5034516;28;20132;-79
2021/01/15 02:09:53;;;;;;;19.40;10.75;;;;;;;1.24;65.92;102671.97;5034481;28;20029;-78
2021/01/15 02:12:34;;;;;;;21.17;12.27;;;;;;;1.25;66.29;102680.72;5034574;28;20121;-79
2021/01/15 02:17:54;;;;;;;24.00;15.68;;;;;;;0.94;67.79;102679.25;5109926;27;20768;-78
2021/01/15 02:23:35;;;;;;;20.77;13.48;;;;;;;1.34;66.43;102685.50;5111223;27;20358;-78
2021/01/15 02:29:16;;;;;;;20.00;12.75;;;;;;;1.45;66.66;102685.16;5111416;27;20370;-79
2021/01/15 02:35:01;;;;;;;19.20;11.93;;;;;;;1.61;66.38;102692.00;5096913;27;20163;-77
2021/01/15 02:40:38;;;;;;;22.45;12.23;;;;;;;1.80;66.63;102692.88;5043129;27;1272165;-79
2021/01/15 02:43:06;;;;;;;25.58;12.68;;;;;;;1.76;67.23;102699.66;5070972;28;20049;-78
2021/01/15 02:45:34;;;;;;;20.92;11.63;;;;;;;1.89;66.86;102697.63;5061436;28;20029;-79
2021/01/15 02:48:04;;;;;;;20.45;11.63;;;;;;;2.00;66.57;102701.63;5059903;28;20037;-79
2021/01/15 02:50:30;;;;;;;17.92;10.98;;;;;;;2.05;66.84;102704.44;5057294;28;20447;-79
2021/01/15 02:52:59;;;;;;;17.83;10.60;;;;;;;2.14;66.72;102702.22;5052723;28;20025;-77
2021/01/15 02:55:25;;;;;;;20.70;10.65;;;;;;;2.15;66.94;102701.41;5063814;28;20111;-79
2021/01/15 02:57:53;;;;;;;19.48;12.73;;;;;;;2.25;66.57;102708.84;5058938;28;20072;-78
2021/01/15 03:00:22;;;;;;;19.20;11.20;;;;;;;2.36;66.51;102700.59;5050128;28;20025;-78
2021/01/15 03:03:01;;;;;;;17.65;11.20;;;;;;;2.49;66.19;102710.72;5050831;28;20047;-78
2021/01/15 03:05:33;;;;;;;16.42;10.90;;;;;;;2.55;66.35;102718.84;5052750;28;20022;-78
2021/01/15 03:08:03;;;;;;;16.80;10.33;;;;;;;2.52;66.08;102717.84;5050817;28;20037;-78
2021/01/15 03:10:31;;;;;;;19.85;10.27;;;;;;;2.57;65.86;102711.97;5050094;28;20365;-77
2021/01/15 03:12:59;;;;;;;17.70;10.55;;;;;;;2.65;65.81;102714.03;5065060;28;20032;-78
2021/01/15 03:15:28;;;;;;;15.50;9.45;;;;;;;2.73;65.51;102715.25;5070355;28;20044;-80
2021/01/15 03:17:56;;;;;;;15.15;9.98;;;;;;;2.74;65.16;102719.66;5070011;28;20499;-78
2021/01/15 03:20:25;;;;;;;15.48;9.98;;;;;;;2.73;64.89;102718.75;5064418;28;20159;-79
2021/01/15 03:22:53;;;;;;;13.77;9.90;;;;;;;2.80;64.72;102725.16;5049925;28;20025;-78
2021/01/15 03:25:20;;;;;;;13.00;9.02;;;;;;;2.88;64.55;102728.09;5032533;28;20365;-79
2021/01/15 03:27:52;;;;;;;16.88;10.10;;;;;;;2.99;63.99;102718.06;5061942;28;20472;-79
2021/01/15 03:33:07;;;;;;;15.10;9.82;;;;;;;2.96;63.56;102731.91;5070741;28;20394;-79
2021/01/15 03:35:33;;;;;;;16.23;8.88;;;;;;;3.05;63.66;102727.09;5070401;28;20028;-80
2021/01/15 03:40:47;;;;;;;17.90;9.70;;;;;;;3.06;62.96;102725.34;5111292;27;20362;-79
2021/01/15 03:43:18;;;;;;;15.75;9.23;;;;;;;3.15;62.81;102728.34;5111368;28;20081;-79
2021/01/15 03:45:46;;;;;;;13.30;8.95;;;;;;;3.19;62.98;102724.13;5111708;28;20103;-79
2021/01/15 03:48:14;;;;;;;13.15;8.07;;;;;;;3.22;62.43;102730.38;5111286;28;20076;-79
2021/01/15 03:50:41;;;;;;;12.00;8.23;;;;;;;3.24;62.91;102733.97;5110346;28;20036;-79
2021/01/15 03:53:08;;;;;;;14.10;8.50;;;;;;;3.25;62.59;102745.31;5102091;28;20024;-78
2021/01/15 03:55:35;;;;;;;11.65;7.75;;;;;;;3.28;62.43;102737.59;5090652;28;20051;-80
2021/01/15 03:58:01;;;;;;;10.32;7.80;;;;;;;3.32;62.75;102741.25;5103199;28;20052;-81
2021/01/15 04:00:28;;;;;;;13.90;7.95;;;;;;;3.35;62.54;102736.13;5110954;28;20042;-79
2021/01/15 04:02:55;;;;;;;13.23;8.50;;;;;;;3.33;62.27;102743.03;5110870;28;20032;-79
2021/01/15 04:05:21;;;;;;;14.68;8.18;;;;;;;3.36;62.42;102743.16;5111059;28;20020;-78
2021/01/15 04:07:49;;;;;;;12.55;8.45;;;;;;;3.38;62.50;102746.75;5111012;28;20024;-80
2021/01/15 04:10:17;;;;;;;11.55;8.07;;;;;;;3.36;61.78;102748.38;5105244;28;20032;-79
2021/01/15 04:12:46;;;;;;;13.48;8.50;;;;;;;3.45;61.75;102748.78;5091213;28;20033;-79
2021/01/15 04:15:16;;;;;;;12.77;8.27;;;;;;;3.47;61.92;102752.34;5101226;28;20394;-78
2021/01/15 04:17:43;;;;;;;11.90;7.35;;;;;;;3.37;61.41;102744.94;5110889;28;20028;-79
2021/01/15 04:20:12;;;;;;;14.68;7.82;;;;;;;3.44;61.25;102744.38;5110336;28;20032;-79
2021/01/15 04:22:43;;;;;;;11.90;7.10;;;;;;;3.46;61.50;102745.31;5092976;28;20489;-78
2021/01/15 04:25:10;;;;;;;9.65;7.30;;;;;;;3.49;61.18;102758.53;5091798;28;20029;-78
2021/01/15 04:27:40;;;;;;;11.70;6.95;;;;;;;3.53;61.24;102760.44;5092055;28;20056;-78
2021/01/15 04:30:08;;;;;;;12.52;8.23;;;;;;;3.55;61.35;102761.41;5092840;28;20056;-81
2021/01/15 04:32:35;;;;;;;10.38;7.15;;;;;;;3.56;61.73;102760.59;5090216;28;20033;-79
2021/01/15 04:35:02;;;;;;;12.30;8.18;;;;;;;3.58;61.16;102771.13;5109356;28;20023;-80
2021/01/15 04:37:29;;;;;;;9.98;7.10;;;;;;;3.60;61.17;102768.56;5110338;28;20114;-79
2021/01/15 04:39:56;;;;;;;11.25;7.47;;;;;;;3.63;61.50;102768.69;5101174;28;20036;-79
2021/01/15 04:42:24;;;;;;;12.30;7.93;;;;;;;3.66;61.14;102768.78;5089979;28;20028;-80
2021/01/15 04:44:51;;;;;;;13.48;7.88;;;;;;;3.65;61.17;102770.53;5089898;28;20020;-81
2021/01/15 04:47:18;;;;;;;10.20;6.88;;;;;;;3.68;60.84;102772.38;5089863;28;20078;-78
2021/01/15 04:49:46;;;;;;;10.70;7.72;;;;;;;3.70;60.98;102773.31;5092726;28;20035;-80
2021/01/15 04:52:14;;;;;;;12.80;7.95;;;;;;;3.65;60.96;102773.16;5085794;28;20189;-79
2021/01/15 04:54:46;;;;;;;12.48;7.53;;;;;;;3.69;61.05;102774.19;5096568;28;20028;-79
2021/01/15 04:57:13;;;;;;;11.88;7.47;;;;;;;3.67;60.82;102776.72;5080608;28;20028;-79
2021/01/15 04:59:48;;;;;;;12.27;7.30;;;;;;;3.71;60.23;102778.66;5079259;28;20040;-82
2021/01/15 05:02:16;;;;;;;12.77;7.55;;;;;;;3.67;60.13;102775.84;5085800;28;20024;-80
2021/01/15 05:04:43;;;;;;;11.73;6.85;;;;;;;3.67;59.64;102776.72;5096341;28;20028;-79
2021/01/15 05:07:11;;;;;;;12.52;7.20;;;;;;;3.73;59.90;102776.97;5086742;28;20039;-79
2021/01/15 05:12:29;;;;;;;11.85;7.30;;;;;;;3.83;59.62;102779.97;5070743;28;20477;-78
2021/01/15 05:14:57;;;;;;;8.90;6.67;;;;;;;3.83;59.30;102782.59;5050413;28;20131;-80
2021/01/15 05:17:27;;;;;;;12.98;8.05;;;;;;;3.86;59.39;102791.47;5050600;28;20264;-80
2021/01/15 05:19:57;;;;;;;10.35;7.28;;;;;;;3.87;59.67;102794.97;5050665;28;20029;-79
2021/01/15 05:22:23;;;;;;;10.63;7.30;;;;;;;3.89;59.46;102799.44;5050789;28;20029;-78
2021/01/15 05:24:49;;;;;;;12.98;8.10;;;;;;;3.89;60.06;102799.44;5050549;28;20068;-78
2021/01/15 05:27:46;;;;;;;12.50;8.23;;;;;;;3.91;59.75;102798.59;5038562;28;20088;-77
2021/01/15 05:33:01;;;;;;;12.43;8.07;;;;;;;3.92;60.02;102814.41;5111588;27;20363;-78
2021/01/15 05:35:51;;;;;;;10.48;7.30;;;;;;;4.03;59.57;102812.19;5110326;28;20039;-78
2021/01/15 05:38:20;;;;;;;12.15;7.68;;;;;;;3.92;59.70;102814.41;5104729;28;20032;-78
2021/01/15 05:40:49;;;;;;;14.73;8.20;;;;;;;3.92;59.70;102816.13;5097281;28;20028;-78
2021/01/15 05:46:18;;;;;;;13.10;7.57;;;;;;;3.99;59.65;102815.56;5090754;27;20412;-79
2021/01/15 05:48:47;;;;;;;11.63;7.28;;;;;;;3.90;59.36;102818.72;5071176;28;20360;-79
2021/01/15 05:51:26;;;;;;;12.57;7.90;;;;;;;3.91;58.32;102827.47;5059022;28;20029;-79
2021/01/15 05:53:53;;;;;;;13.02;8.02;;;;;;;3.78;59.03;102826.09;5050772;28;20108;-79
2021/01/15 05:56:21;;;;;;;13.88;8.00;;;;;;;3.84;59.10;102834.19;5051082;28;20029;-79
2021/01/15 05:59:08;;;;;;;11.88;7.47;;;;;;;4.02;58.95;102831.38;5050866;28;20073;-79
2021/01/15 06:04:36;;;;;;;10.40;7.20;;;;;;;3.97;58.42;102832.94;5111397;27;20355;-79
2021/01/15 06:09:59;;;;;;;14.65;8.70;;;;;;;4.03;58.48;102854.16;5094711;27;20376;-78
2021/01/15 06:12:25;;;;;;;12.75;8.18;;;;;;;4.01;58.75;102847.97;5090853;28;20525;-80
2021/01/15 06:14:57;;;;;;;12.50;7.90;;;;;;;4.07;58.32;102858.69;5090666;28;20036;-81
2021/01/15 06:17:25;;;;;;;10.73;7.35;;;;;;;4.05;58.74;102870.88;5071285;28;20467;-79
2021/01/15 06:19:55;;;;;;;11.57;7.78;;;;;;;4.07;58.96;102866.56;5075860;28;20399;-78
2021/01/15 06:22:47;;;;;;;13.05;8.52;;;;;;;4.11;58.32;102867.59;5084406;28;20032;-79
2021/01/15 06:25:33;;;;;;;13.38;7.68;;;;;;;4.12;59.02;102870.25;5056006;28;20028;-79
2021/01/15 06:28:03;;;;;;;13.43;7.90;;;;;;;3.96;59.20;102876.66;5071066;28;20025;-80
2021/01/15 06:30:33;;;;;;;13.63;7.97;;;;;;;4.00;58.86;102883.81;5069072;28;20480;-79
2021/01/15 06:35:52;;;;;;;11.15;7.80;;;;;;;4.00;58.56;102877.63;5111094;27;20381;-78
2021/01/15 06:38:25;;;;;;;12.75;8.98;;;;;;;4.03;58.48;102883.91;5111663;28;20453;-79
2021/01/15 06:40:52;;;;;;;12.90;8.23;;;;;;;4.04;58.86;102890.06;5103300;28;20039;-81
2021/01/15 06:43:29;;;;;;;12.95;8.05;;;;;;;4.08;58.34;102889.34;5111910;28;20514;-83
2021/01/15 06:45:58;;;;;;;13.57;9.18;;;;;;;4.00;58.86;102891.66;5111291;28;20077;-79
2021/01/15 06:51:07;;;;;;;12.90;8.98;;;;;;;4.01;58.56;102888.22;5106998;27;20375;-80
2021/01/15 06:53:38;;;;;;;15.95;8.90;;;;;;;4.05;58.43;102889.25;5099475;28;20035;-80
2021/01/15 06:56:06;;;;;;;17.58;9.35;;;;;;;4.07;58.69;102886.66;5109505;28;20106;-79
2021/01/15 07:01:36;;;;;;;13.27;8.50;;;;;;;4.08;58.80;102896.34;5099328;27;20391;-79
2021/01/15 07:04:28;;;;;;;14.32;8.80;;;;;;;4.13;58.41;102903.53;5090867;28;20502;-87
2021/01/15 07:09:51;;;;;;;16.95;8.77;;;;;;;4.13;58.58;102914.03;5079802;28;21003;-89
2021/01/15 07:12:19;;;;;;;11.45;8.18;;;;;;;4.14;58.90;102921.06;5033334;28;20068;-87
2021/01/15 07:14:56;;;;;;;13.52;8.85;;;;;;;4.19;58.90;102916.03;5050257;28;20450;-86
2021/01/15 07:17:44;;;;;;;14.43;8.90;;;;;;;4.22;58.82;102924.00;5049724;28;20037;-88
2021/01/15 07:20:19;;;;;;;12.57;8.35;;;;;;;4.17;58.66;102926.44;5048165;28;20392;-78
2021/01/15 07:22:59;;;;;;;13.50;8.88;;;;;;;4.18;58.48;102933.47;5030745;28;20523;-79
2021/01/15 07:25:25;;;;;;;15.10;9.43;;;;;;;4.14;58.76;102936.81;5049169;28;20029;-78
2021/01/15 07:27:52;;;;;;;13.35;9.07;;;;;;;4.13;58.88;102940.28;5049741;28;20124;-79
2021/01/15 07:30:28;;;;;;;15.68;8.57;;;;;;;4.23;58.68;102940.66;5050313;28;20029;-79
2021/01/15 07:32:56;;;;;;;15.98;9.07;;;;;;;4.11;58.47;102939.34;5031946;28;20131;-79
2021/01/15 07:35:26;;;;;;;15.85;9.63;;;;;;;4.11;58.50;102941.94;5049610;28;20029;-83
2021/01/15 07:38:10;;;;;;;14.40;9.25;;;;;;;4.25;58.34;102944.22;5049377;28;20029;-89
2021/01/15 07:40:37;;;;;;;15.90;9.95;;;;;;;4.10;58.40;102948.03;5046439;28;20112;-86
2021/01/15 07:43:03;;;;;;;14.90;9.60;;;;;;;4.15;58.01;102946.47;5049942;28;20024;-83
2021/01/15 07:48:19;;;;;;;15.02;9.05;;;;;;;4.21;58.43;102949.34;5032698;28;20425;-80
2021/01/15 07:50:46;;;;;;;17.30;10.23;;;;;;;4.21;58.13;102951.06;5013455;28;20057;-79
2021/01/15 07:56:00;;;;;;;15.18;9.30;;;;;;;4.21;57.56;102961.56;5109159;27;20381;-79
2021/01/15 07:58:45;;;;;;;14.00;9.30;;;;;;;4.34;57.66;102957.72;5097109;28;20060;-81
2021/01/15 08:01:14;;;;;;;15.63;9.48;;;;;;;4.29;57.93;102967.16;5078549;28;20025;-78
2021/01/15 08:03:44;;;;;;;14.32;8.80;;;;;;;4.32;58.17;102967.25;5072677;28;20036;-80
2021/01/15 08:06:11;;;;;;;13.60;9.13;;;;;;;4.31;58.03;102966.38;5073715;28;20029;-81
2021/01/15 08:11:55;;;;;;;13.98;8.95;;;;;;;4.37;57.95;102968.31;5111049;27;20868;-79
2021/01/15 08:14:22;;;;;;;14.00;9.48;;;;;;;4.38;58.38;102971.00;5095060;28;20028;-84
2021/01/15 08:16:49;;;;;;;14.70;9.20;;;;;;;4.38;57.84;102976.25;5104149;28;20031;-80
2021/01/15 08:19:17;;;;;;;53.10;23.95;;;;;;;4.41;58.13;102983.38;5105157;28;20115;-79
2021/01/15 08:21:45;;;;;;;28.38;13.45;;;;;;;4.41;58.17;102980.75;5108762;28;20046;-80
2021/01/15 08:24:12;;;;;;;15.35;10.77;;;;;;;4.43;58.16;102986.06;5090677;28;20538;-80
2021/01/15 08:26:54;;;;;;;21.50;11.05;;;;;;;4.51;58.21;102989.88;5090620;28;20475;-79
2021/01/15 08:29:23;;;;;;;;;;;;;;;4.63;57.32;102992.09;5090818;28;20103;-81
2021/01/15 08:31:56;;;;;;;15.80;9.98;;;;;;;4.48;58.46;103003.78;5090355;28;19913;-79
2021/01/15 08:34:23;;;;;;;16.50;9.82;;;;;;;4.48;58.22;103001.16;5090373;28;20364;-80
2021/01/15 08:36:55;;;;;;;17.45;9.35;;;;;;;4.49;58.53;103007.31;5082897;28;20056;-78
2021/01/15 08:39:22;;;;;;;18.10;10.80;;;;;;;4.52;58.06;103007.41;5096011;28;20036;-86
2021/01/15 08:42:04;;;;;;;18.85;10.57;;;;;;;4.58;57.33;103012.91;5076913;22;20057;-78
2021/01/15 08:44:34;;;;;;;14.43;9.23;;;;;;;4.48;58.28;103014.28;5030060;28;20460;-78
2021/01/15 08:47:03;;;;;;;15.57;9.60;;;;;;;4.44;58.17;103015.00;5038741;28;20025;-76
2021/01/15 08:49:29;;;;;;;15.20;10.10;;;;;;;4.43;57.89;103007.94;5049782;28;20065;-77
2021/01/15 08:51:59;;;;;;;18.65;10.05;;;;;;;4.45;57.88;103016.78;5050356;28;20044;-77
2021/01/15 08:54:28;;;;;;;13.52;9.50;;;;;;;4.45;57.88;103022.03;5049800;28;20040;-77
2021/01/15 08:56:55;;;;;;;16.48;10.60;;;;;;;4.47;58.24;103017.72;5049002;28;20056;-77
2021/01/15 08:59:27;;;;;;;19.35;10.45;;;;;;;4.56;57.91;103021.56;5051683;28;20369;-77
2021/01/15 09:01:59;;;;;;;15.07;9.77;;;;;;;4.56;58.03;103024.19;5049064;28;20040;-79
2021/01/15 09:04:28;;;;;;;15.20;9.68;;;;;;;4.55;58.06;103028.56;5045749;28;20029;-79
2021/01/15 09:06:56;;;;;;;14.25;10.02;;;;;;;4.56;58.23;103029.44;5049282;28;20079;-79
2021/01/15 09:09:25;;;;;;;16.65;10.27;;;;;;;4.59;57.98;103034.84;5049377;28;20029;-79
2021/01/15 09:11:53;;;;;;;18.15;11.35;;;;;;;4.61;58.15;103035.75;5049419;28;20033;-79
2021/01/15 09:14:21;;;;;;;16.90;10.85;;;;;;;4.61;57.72;103038.41;5049152;28;20021;-78
2021/01/15 09:16:49;;;;;;;18.55;10.90;;;;;;;4.64;58.11;103038.53;5048846;28;20025;-78
2021/01/15 09:19:16;;;;;;;19.55;10.77;;;;;;;4.63;58.01;103052.50;5047839;28;20029;-84
2021/01/15 09:24:23;;;;;;;18.23;10.90;;;;;;;4.45;58.23;103053.53;5108133;27;20371;-77
2021/01/15 09:27:03;;;;;;;20.42;11.73;;;;;;;4.53;58.40;103052.09;5106949;28;20097;-84
2021/01/15 09:29:34;;;;;;;18.50;10.15;;;;;;;4.54;58.28;103068.78;5104833;28;20044;-79
2021/01/15 09:32:02;;;;;;;16.33;10.98;;;;;;;4.68;57.97;103072.84;5111945;28;20074;-78
2021/01/15 09:34:29;;;;;;;19.52;10.38;;;;;;;4.71;58.17;103074.72;5116438;27;20390;-79
2021/01/15 09:36:55;;;;;;;15.73;10.27;;;;;;;4.74;58.32;103082.69;5104810;28;20024;-78
2021/01/15 09:39:26;;;;;;;13.27;8.85;;;;;;;4.77;57.82;103074.03;5110700;28;20036;-78
2021/01/15 09:41:55;;;;;;;14.88;9.43;;;;;;;4.80;58.22;103072.44;5106592;28;20039;-77
2021/01/15 09:44:24;;;;;;;15.35;9.57;;;;;;;4.82;57.97;103076.03;5097537;28;20028;-77
2021/01/15 09:46:55;;;;;;;19.92;11.52;;;;;;;4.83;58.35;103079.53;5096178;28;20675;-77
2021/01/15 09:49:21;;;;;;;17.00;9.80;;;;;;;4.83;58.31;103087.44;5094708;28;20035;-76
2021/01/15 09:51:50;;;;;;;19.52;10.05;;;;;;;4.80;57.80;103082.94;5095902;28;20058;-76
2021/01/15 09:54:16;;;;;;;18.30;10.70;;;;;;;4.84;58.07;103087.47;5096116;28;20040;-78
2021/01/15 09:56:43;;;;;;;16.98;10.73;;;;;;;4.82;58.03;103094.44;5097293;28;20060;-79
2021/01/15 09:59:13;;;;;;;17.20;10.88;;;;;;;4.88;58.11;103096.38;5098349;28;20032;-83
2021/01/15 10:01:39;;;;;;;18.85;11.27;;;;;;;4.88;58.00;103100.75;5097215;28;20407;-78
2021/01/15 10:04:06;;;;;;;17.83;10.07;;;;;;;4.89;57.77;103102.56;5098468;28;20035;-78
2021/01/15 10:06:37;;;;;;;18.42;9.63;;;;;;;4.91;57.58;103099.16;5117867;28;20570;-77
2021/01/15 10:09:04;;;;;;;16.95;9.75;;;;;;;4.84;57.72;103105.88;5097246;28;20415;-78
2021/01/15 10:11:33;;;;;;;17.65;10.13;;;;;;;4.85;57.99;103110.28;5097875;28;20032;-78
2021/01/15 10:14:03;;;;;;;15.70;10.23;;;;;;;4.89;57.64;103113.06;5096839;28;20439;-79
2021/01/15 10:16:29;;;;;;;17.38;11.15;;;;;;;4.88;57.34;103121.75;5099158;28;20024;-78
2021/01/15 10:18:57;;;;;;;17.98;10.75;;;;;;;4.89;57.49;103119.19;5095541;28;20081;-79
2021/01/15 10:21:25;;;;;;;17.95;10.80;;;;;;;4.91;57.29;103121.88;5098036;28;20027;-80
2021/01/15 10:23:51;;;;;;;24.48;13.25;;;;;;;4.93;57.74;103118.47;5099404;28;20108;-82
2021/01/15 10:26:30;;;;;;;17.02;10.68;;;;;;;5.00;57.41;103124.88;5105099;28;20038;-81
2021/01/15 10:28:59;;;;;;;13.98;9.68;;;;;;;4.97;57.24;103119.50;5099914;28;20036;-86
2021/01/15 10:34:03;;;;;;;15.95;9.95;;;;;;;5.01;57.40;103118.81;4967378;28;20363;-80
2021/01/15 10:36:30;;;;;;;16.90;10.18;;;;;;;5.03;57.39;103130.25;4958792;28;20477;-79
2021/01/15 10:38:57;;;;;;;17.63;10.55;;;;;;;5.05;57.27;103131.22;4961767;28;20050;-80
2021/01/15 10:41:30;;;;;;;16.92;10.35;;;;;;;5.10;56.85;103119.16;4944349;28;20127;-76
2021/01/15 10:43:57;;;;;;;17.48;10.60;;;;;;;5.08;57.14;103126.06;4961014;28;20337;-81
2021/01/15 10:46:43;;;;;;;18.42;10.95;;;;;;;5.21;56.40;103135.34;4946549;28;20118;-77
2021/01/15 10:49:12;;;;;;;18.40;10.38;;;;;;;5.15;56.77;103133.38;4937734;28;20032;-78
2021/01/15 10:51:47;;;;;;;16.45;10.15;;;;;;;5.21;56.61;103129.19;4939104;28;20522;-76
2021/01/15 10:54:14;;;;;;;16.63;9.93;;;;;;;5.17;56.55;103134.34;4932712;28;20039;-80
2021/01/15 10:56:43;;;;;;;15.07;9.95;;;;;;;5.21;56.80;103126.56;4938477;29;20051;-79
2021/01/15 10:59:10;;;;;;;15.95;9.38;;;;;;;5.24;56.23;103121.44;4934582;28;20094;-82
2021/01/15 11:01:39;;;;;;;15.98;9.80;;;;;;;5.30;56.68;103124.28;4938796;28;20028;-79
2021/01/15 11:04:08;;;;;;;18.23;10.25;;;;;;;5.31;56.41;103124.34;4936722;28;20035;-84
2021/01/15 11:06:35;;;;;;;16.80;10.02;;;;;;;5.36;56.41;103124.53;5000384;28;20502;-81
2021/01/15 11:09:02;;;;;;;16.48;9.65;;;;;;;5.39;55.97;103122.00;4933046;28;20032;-79
2021/01/15 11:11:28;;;;;;;17.38;10.95;;;;;;;5.42;56.23;103118.59;4940219;28;20028;-79
2021/01/15 11:13:55;;;;;;;21.77;11.15;;;;;;;5.45;56.21;103116.09;4936720;28;20111;-79
2021/01/15 11:16:21;;;;;;;15.25;10.35;;;;;;;5.51;55.96;103114.59;4932331;28;20043;-80
2021/01/15 11:18:47;;;;;;;59.03;29.15;;;;;;;5.57;56.01;103113.94;4930218;28;20394;-80
2021/01/15 11:21:22;;;;;;;23.52;12.95;;;;;;;5.60;55.84;103116.66;4940130;28;20471;-79
2021/01/15 11:23:48;;;;;;;18.65;10.65;;;;;;;5.60;56.13;103111.41;4936372;29;20059;-80
2021/01/15 11:26:24;;;;;;;21.33;11.80;;;;;;;5.76;55.71;103112.88;4934077;28;20116;-81
2021/01/15 11:28:51;;;;;;;14.82;10.45;;;;;;;5.66;56.60;103111.63;4928083;29;20024;-80
2021/01/15 11:31:17;;;;;;;14.43;9.32;;;;;;;5.65;56.27;103108.94;4928619;28;20416;-79
2021/01/15 11:33:44;;;;;;;15.27;9.00;;;;;;;5.65;56.17;103114.22;4926028;29;20552;-82
2021/01/15 11:36:11;;;;;;;16.58;9.98;;;;;;;5.63;56.01;103110.63;4926636;29;20116;-79
2021/01/15 11:38:38;;;;;;;16.80;9.80;;;;;;;5.60;55.85;103119.28;4927583;28;20352;-79
2021/01/15 11:41:07;;;;;;;16.95;9.57;;;;;;;5.64;55.81;103117.69;4980956;23;20067;-80
2021/01/15 11:43:35;;;;;;;20.83;9.93;;;;;;;5.69;55.18;103115.22;5000588;28;20050;-80
2021/01/15 11:46:04;;;;;;;16.02;9.82;;;;;;;5.64;55.30;103115.03;5005873;28;20035;-79
2021/01/15 11:48:31;;;;;;;13.02;8.35;;;;;;;5.62;55.32;103112.38;4991374;28;20040;-80
2021/01/15 11:50:59;;;;;;;15.25;10.07;;;;;;;5.65;55.14;103114.22;4996121;28;20508;-79
2021/01/15 11:53:25;;;;;;;15.30;9.77;;;;;;;5.67;55.39;103113.44;5003216;28;20045;-82
2021/01/15 11:55:53;;;;;;;17.05;10.70;;;;;;;5.69;55.48;103118.75;5017279;28;20472;-82
2021/01/15 11:58:23;;;;;;;16.98;10.63;;;;;;;5.69;55.17;103108.22;5015436;28;20041;-80
2021/01/15 12:00:49;;;;;;;14.57;9.40;;;;;;;5.77;54.86;103117.28;5023352;28;20034;-78
2021/01/15 12:03:16;;;;;;;12.57;8.50;;;;;;;5.69;55.05;103110.84;5011411;28;20026;-81
2021/01/15 12:05:52;;;;;;;18.45;9.85;;;;;;;5.70;55.33;103112.66;5020607;28;20400;-80
2021/01/15 12:08:20;;;;;;;18.90;11.40;;;;;;;5.69;55.12;103117.84;5022374;28;20026;-81
2021/01/15 12:10:48;;;;;;;11.80;8.32;;;;;;;5.67;54.68;103109.91;5007653;28;20591;-80
2021/01/15 12:13:15;;;;;;;13.75;9.63;;;;;;;5.71;54.84;103106.56;5035152;28;20029;-80
2021/01/15 12:15:41;;;;;;;17.15;9.57;;;;;;;5.57;54.97;103107.75;5022645;28;20034;-83
2021/01/15 12:18:12;;;;;;;17.52;9.52;;;;;;;5.55;54.24;103112.09;5012634;28;20025;-82
2021/01/15 12:20:38;;;;;;;18.55;9.02;;;;;;;5.53;54.18;103103.25;5020427;28;20394;-80
2021/01/15 12:23:05;;;;;;;13.50;8.60;;;;;;;5.47;53.42;103110.06;5021793;28;20027;-85
2021/01/15 12:25:31;;;;;;;14.02;8.88;;;;;;;5.52;53.67;103099.72;5002002;28;20038;-83
2021/01/15 12:27:58;;;;;;;15.23;9.23;;;;;;;5.55;53.69;103097.19;5022179;28;20068;-79
2021/01/15 12:30:24;;;;;;;15.30;9.20;;;;;;;5.61;53.88;103101.78;5029404;28;20454;-82
2021/01/15 12:32:51;;;;;;;14.75;8.68;;;;;;;5.69;52.95;103102.06;5018741;28;20041;-84